createdAt,value
2022-10-11T00:03:48.820Z,2.40
2022-10-11T00:08:50.692Z,2.50
2022-10-11T00:13:52.328Z,2.50
2022-10-11T00:18:54.011Z,2.70
2022-10-11T00:23:55.773Z,2.30
2022-10-11T00:28:57.478Z,2.70
2022-10-11T00:33:59.849Z,2.40
2022-10-11T00:39:02.009Z,2.60
2022-10-11T00:44:22.824Z,2.20
2022-10-11T00:49:39.607Z,2.50
2022-10-11T00:54:45.709Z,2.10
2022-10-11T00:59:54.058Z,2.10
2022-10-11T01:05:17.835Z,2.10
2022-10-11T01:10:17.573Z,2.30
2022-10-11T01:15:38.219Z,2.10
2022-10-11T01:20:39.792Z,2.10
2022-10-11T01:25:56.926Z,2.00
2022-10-11T01:31:08.549Z,2.50
2022-10-11T01:36:45.757Z,1.90
2022-10-11T01:41:52.563Z,2.50
2022-10-11T01:46:54.584Z,2.30
2022-10-11T01:52:03.464Z,2.20
2022-10-11T01:57:23.150Z,2.40
2022-10-11T02:02:24.783Z,2.10
2022-10-11T02:07:49.444Z,2.20
2022-10-11T02:13:03.497Z,2.50
2022-10-11T02:18:13.267Z,2.20
2022-10-11T02:23:20.669Z,2.30
2022-10-11T02:28:28.983Z,1.90
2022-10-11T02:33:40.204Z,2.00
2022-10-11T02:38:50.649Z,2.20
2022-10-11T02:44:03.365Z,2.40
2022-10-11T02:49:07.436Z,2.50
2022-10-11T02:54:09.258Z,2.40
2022-10-11T02:59:11.037Z,2.40
2022-10-11T03:04:12.725Z,2.50
2022-10-11T03:09:14.408Z,2.50
2022-10-11T03:14:16.071Z,2.50
2022-10-11T03:19:19.419Z,2.00
2022-10-11T03:24:21.371Z,2.60
2022-10-11T03:29:23.080Z,2.30
2022-10-11T03:34:24.960Z,2.20
2022-10-11T03:39:26.672Z,2.50
2022-10-11T03:44:28.401Z,2.30
2022-10-11T03:49:30.219Z,2.30
2022-10-11T03:54:31.894Z,3.10
2022-10-11T03:59:33.546Z,2.70
2022-10-11T04:04:35.250Z,2.10
2022-10-11T04:09:37.040Z,2.60
2022-10-11T04:14:38.716Z,2.30
2022-10-11T04:19:40.426Z,2.50
2022-10-11T04:24:42.227Z,2.50
2022-10-11T04:29:43.892Z,2.60
2022-10-11T04:34:45.655Z,2.60
2022-10-11T04:39:47.419Z,2.40
2022-10-11T04:44:49.182Z,2.80
2022-10-11T04:49:50.871Z,3.40
2022-10-11T04:54:52.756Z,3.20
2022-10-11T04:59:54.417Z,3.30
2022-10-11T05:04:56.326Z,3.40
2022-10-11T05:09:58.181Z,3.80
2022-10-11T05:14:59.945Z,3.30
2022-10-11T05:20:01.694Z,2.80
2022-10-11T05:25:03.629Z,3.70
2022-10-11T05:30:05.863Z,4.50
2022-10-11T05:35:08.072Z,4.00
2022-10-11T05:40:11.114Z,3.50
2022-10-11T05:45:12.808Z,4.80
2022-10-11T05:50:14.527Z,4.50
2022-10-11T05:55:16.257Z,4.10
2022-10-11T06:00:18.012Z,4.30
2022-10-11T06:05:19.738Z,4.90
2022-10-11T06:10:21.417Z,4.80
2022-10-11T06:15:23.418Z,5.50
2022-10-11T06:20:27.044Z,4.80
2022-10-11T06:25:28.898Z,4.10
2022-10-11T06:30:30.623Z,4.30
2022-10-11T06:35:32.306Z,5.10
2022-10-11T06:40:34.061Z,5.30
2022-10-11T06:45:35.781Z,5.00
2022-10-11T06:50:58.504Z,4.30
2022-10-11T06:56:09.944Z,5.10
2022-10-11T07:01:16.688Z,5.50
2022-10-11T07:06:21.794Z,5.30
2022-10-11T07:11:26.968Z,5.40
2022-10-11T07:16:29.038Z,5.70
2022-10-11T07:21:31.940Z,5.10
2022-10-11T07:26:38.915Z,5.80
2022-10-11T07:31:42.603Z,5.70
2022-10-11T07:36:44.300Z,6.70
2022-10-11T07:41:46.233Z,6.20
2022-10-11T07:46:48.045Z,5.80
2022-10-11T07:51:50.159Z,7.00
2022-10-11T07:56:51.811Z,5.90
2022-10-11T08:01:53.481Z,6.80
2022-10-11T08:06:55.184Z,6.90
2022-10-11T08:11:56.911Z,6.40
2022-10-11T08:16:58.948Z,7.40
2022-10-11T08:22:00.709Z,6.60
2022-10-11T08:27:02.437Z,7.70
2022-10-11T08:32:04.269Z,7.50
2022-10-11T08:37:06.191Z,7.90
2022-10-11T08:42:22.366Z,9.10
2022-10-11T08:47:32.887Z,10.00
2022-10-11T08:52:37.670Z,10.40
2022-10-11T08:57:40.904Z,8.50
2022-10-11T09:03:07.392Z,10.00
2022-10-11T09:08:48.001Z,8.30
2022-10-11T09:14:00.921Z,8.10
2022-10-11T09:19:30.420Z,7.80
2022-10-11T09:25:12.121Z,8.90
2022-10-11T09:30:17.676Z,6.90
2022-10-11T09:35:21.826Z,7.50
2022-10-11T09:40:45.077Z,8.60
2022-10-11T09:45:49.432Z,6.60
2022-10-11T09:50:54.637Z,6.80
2022-10-11T09:56:04.024Z,6.20
2022-10-11T10:01:11.643Z,6.40
2022-10-11T10:06:24.853Z,7.10
2022-10-11T10:11:36.922Z,5.60
2022-10-11T10:16:38.649Z,5.70
2022-10-11T10:21:46.772Z,5.60
2022-10-11T10:27:20.997Z,7.60
2022-10-11T10:32:28.256Z,6.70
2022-10-11T10:37:36.368Z,7.00
2022-10-11T10:42:38.097Z,5.80
2022-10-11T10:47:58.210Z,6.40
2022-10-11T10:53:23.989Z,5.50
2022-10-11T10:58:52.462Z,5.20
2022-10-11T11:04:08.061Z,4.30
2022-10-11T11:09:19.184Z,3.80
2022-10-11T11:15:02.519Z,3.60
2022-10-11T11:20:24.823Z,3.20
2022-10-11T11:25:35.444Z,2.60
2022-10-11T11:30:45.972Z,3.60
2022-10-11T11:35:52.838Z,2.70
2022-10-11T11:40:58.845Z,3.50
2022-10-11T11:46:09.611Z,3.20
2022-10-11T11:51:29.005Z,3.00
2022-10-11T11:57:05.257Z,3.00
2022-10-11T12:02:28.083Z,1.80
2022-10-11T12:07:30.189Z,1.90
2022-10-11T12:12:38.069Z,2.00
2022-10-11T12:17:56.040Z,2.10
2022-10-11T12:23:03.514Z,2.20
2022-10-11T12:28:43.156Z,2.10
2022-10-11T12:33:45.246Z,1.80
2022-10-11T12:38:46.971Z,2.00
2022-10-11T12:43:48.636Z,1.60
2022-10-11T12:49:05.562Z,1.80
2022-10-11T12:54:36.875Z,1.50
2022-10-11T12:59:44.676Z,1.60
2022-10-11T13:04:46.425Z,2.40
2022-10-11T13:09:49.184Z,1.30
2022-10-11T13:15:04.009Z,1.30
2022-10-11T13:20:23.866Z,2.10
2022-10-11T13:30:32.520Z,1.60
2022-10-11T13:35:36.569Z,1.70
2022-10-11T13:40:38.711Z,1.40
2022-10-11T13:45:41.435Z,1.80
2022-10-11T13:50:51.109Z,1.20
2022-10-11T13:55:56.066Z,2.10
2022-10-11T14:00:57.723Z,1.40
2022-10-11T14:06:00.555Z,1.20
2022-10-11T14:11:06.293Z,1.20
2022-10-11T14:16:27.666Z,1.60
2022-10-11T14:22:00.248Z,1.40
2022-10-11T14:27:05.491Z,1.50
2022-10-11T14:32:11.065Z,2.70
2022-10-11T14:37:15.172Z,2.80
2022-10-11T14:42:17.601Z,1.60
2022-10-11T14:47:19.514Z,2.60
2022-10-11T14:52:21.166Z,3.60
2022-10-11T14:57:22.816Z,1.70
2022-10-11T15:02:24.471Z,1.80
2022-10-11T15:07:26.151Z,1.40
2022-10-11T15:12:27.793Z,1.10
2022-10-11T15:17:29.507Z,1.40
2022-10-11T15:22:31.207Z,1.40
2022-10-11T15:27:32.865Z,1.30
2022-10-11T15:32:34.541Z,1.70
2022-10-11T15:37:37.423Z,2.00
2022-10-11T15:42:39.493Z,1.60
2022-10-11T15:47:41.387Z,1.20
2022-10-11T15:52:43.070Z,4.60
2022-10-11T15:57:44.773Z,2.10
2022-10-11T16:02:46.500Z,1.80
2022-10-11T16:07:48.595Z,2.30
2022-10-11T16:12:50.376Z,2.10
2022-10-11T16:17:52.115Z,2.00
2022-10-11T16:22:54.749Z,2.00
2022-10-11T16:27:56.455Z,2.60
2022-10-11T16:32:58.663Z,2.70
2022-10-11T16:38:01.417Z,3.20
2022-10-11T16:43:07.411Z,3.20
2022-10-11T16:48:09.775Z,3.70
2022-10-11T16:53:11.503Z,3.70
2022-10-11T16:58:13.277Z,5.10
2022-10-11T17:03:15.044Z,5.20
2022-10-11T17:08:16.919Z,5.70
2022-10-11T17:13:18.661Z,6.70
2022-10-11T17:18:20.332Z,7.30
2022-10-11T17:23:21.965Z,8.50
2022-10-11T17:28:23.937Z,8.10
2022-10-11T17:33:27.332Z,9.20
2022-10-11T17:38:29.058Z,13.10
2022-10-11T17:43:31.925Z,10.60
2022-10-11T17:48:36.734Z,10.70
2022-10-11T17:53:38.932Z,11.30
2022-10-11T17:58:40.684Z,10.40
2022-10-11T18:03:43.448Z,10.70
2022-10-11T18:08:45.123Z,10.00
2022-10-11T18:13:51.847Z,10.30
2022-10-11T18:18:54.870Z,15.00
2022-10-11T18:23:59.780Z,11.90
2022-10-11T18:29:01.491Z,11.30
2022-10-11T18:34:05.096Z,11.20
2022-10-11T18:39:09.476Z,10.80
2022-10-11T18:44:14.183Z,9.30
2022-10-11T18:49:15.963Z,8.40
2022-10-11T18:54:21.132Z,7.50
2022-10-11T18:59:23.310Z,6.70
2022-10-11T19:04:25.097Z,7.90
2022-10-11T19:09:28.467Z,9.00
2022-10-11T19:14:30.461Z,8.40
2022-10-11T19:19:33.358Z,8.00
2022-10-11T19:24:35.187Z,7.60
2022-10-11T19:29:37.918Z,7.80
2022-10-11T19:34:39.621Z,11.00
2022-10-11T19:39:41.395Z,11.80
2022-10-11T19:44:43.080Z,18.80
2022-10-11T19:49:44.792Z,20.30
2022-10-11T19:54:46.516Z,25.50
2022-10-11T19:59:48.217Z,25.90
2022-10-11T20:04:52.810Z,26.90
2022-10-11T20:09:54.952Z,25.20
2022-10-11T20:14:56.625Z,19.00
2022-10-11T20:19:58.303Z,17.80
2022-10-11T20:25:00.108Z,19.90
2022-10-11T20:30:01.924Z,18.60
2022-10-11T20:35:03.895Z,18.60
2022-10-11T20:40:06.246Z,21.30
2022-10-11T20:45:08.282Z,24.90
2022-10-11T20:50:09.924Z,28.00
2022-10-11T20:55:11.608Z,28.40
2022-10-11T21:00:13.911Z,28.30
2022-10-11T21:05:15.635Z,24.00
2022-10-11T21:10:17.443Z,23.90
2022-10-11T21:15:19.152Z,24.20
2022-10-11T21:20:20.864Z,24.60
2022-10-11T21:25:22.627Z,25.60
2022-10-11T21:30:24.263Z,28.40
2022-10-11T21:35:30.362Z,31.00
2022-10-11T21:40:31.998Z,29.10
2022-10-11T21:45:37.339Z,29.80
2022-10-11T21:50:39.010Z,29.30
2022-10-11T21:55:40.750Z,27.20
2022-10-11T22:00:42.333Z,29.00
2022-10-11T22:05:47.455Z,25.40
2022-10-11T22:10:57.620Z,25.50
2022-10-11T22:16:03.687Z,24.90
2022-10-11T22:21:12.026Z,24.70
2022-10-11T22:26:20.325Z,26.80
2022-10-11T22:31:22.371Z,26.80
2022-10-11T22:36:25.077Z,28.70
2022-10-11T22:41:26.828Z,32.40
2022-10-11T22:46:28.721Z,31.00
2022-10-11T22:51:30.490Z,33.20
2022-10-11T22:56:32.195Z,41.90
2022-10-11T23:01:33.916Z,40.30
2022-10-11T23:06:35.595Z,42.40
2022-10-11T23:11:41.916Z,40.00
2022-10-11T23:16:46.814Z,41.60
2022-10-11T23:21:48.565Z,37.40
2022-10-11T23:26:50.251Z,34.20
2022-10-11T23:31:51.969Z,29.80
2022-10-11T23:36:53.625Z,32.10
2022-10-11T23:41:55.503Z,37.20
2022-10-11T23:46:57.292Z,32.00
2022-10-11T23:51:59.050Z,34.10
2022-10-11T23:57:00.770Z,35.30
